createdAt,value
2019-05-09T00:00:53.410Z,30.07
2019-05-09T00:03:23.977Z,26.13
2019-05-09T00:05:54.204Z,28.27
2019-05-09T00:08:23.131Z,34.03
2019-05-09T00:10:53.447Z,32.90
2019-05-09T00:13:23.775Z,32.90
2019-05-09T00:15:54.202Z,29.40
2019-05-09T00:18:23.277Z,24.33
2019-05-09T00:20:56.335Z,39.83
2019-05-09T00:23:24.856Z,35.53
2019-05-09T00:25:53.841Z,46.10
2019-05-09T00:28:23.598Z,35.30
2019-05-09T00:30:56.509Z,36.77
2019-05-09T00:33:26.838Z,32.77
2019-05-09T00:35:55.099Z,31.17
2019-05-09T00:38:24.940Z,32.77
2019-05-09T00:40:58.609Z,32.27
2019-05-09T00:43:23.805Z,31.63
2019-05-09T00:46:04.198Z,38.30
2019-05-09T00:48:34.201Z,37.10
2019-05-09T00:51:03.512Z,47.60
2019-05-09T00:53:33.853Z,40.17
2019-05-09T00:56:04.015Z,41.60
2019-05-09T00:58:33.427Z,66.87
2019-05-09T01:01:04.299Z,46.40
2019-05-09T01:03:33.949Z,51.73
2019-05-09T01:06:04.087Z,57.33
2019-05-09T01:08:33.526Z,34.37
2019-05-09T01:11:11.783Z,37.73
2019-05-09T01:13:33.906Z,56.20
2019-05-09T01:16:04.377Z,34.13
2019-05-09T01:18:33.184Z,28.80
2019-05-09T01:21:03.916Z,30.67
2019-05-09T01:23:34.351Z,27.97
2019-05-09T01:26:04.008Z,26.53
2019-05-09T01:28:33.925Z,24.17
2019-05-09T01:31:03.989Z,24.13
2019-05-09T01:33:40.143Z,23.70
2019-05-09T01:36:08.616Z,23.80
2019-05-09T01:38:37.585Z,22.97
2019-05-09T01:41:06.463Z,22.90
2019-05-09T01:43:35.381Z,26.13
2019-05-09T01:46:04.257Z,23.57
2019-05-09T01:48:34.099Z,24.90
2019-05-09T01:51:03.251Z,24.17
2019-05-09T01:53:33.555Z,24.03
2019-05-09T01:56:03.699Z,24.80
2019-05-09T01:58:34.219Z,26.80
2019-05-09T02:01:04.157Z,31.37
2019-05-09T02:03:33.717Z,26.70
2019-05-09T02:06:03.454Z,25.20
2019-05-09T02:08:34.175Z,27.47
2019-05-09T02:11:03.780Z,22.73
2019-05-09T02:13:33.823Z,22.30
2019-05-09T02:16:09.437Z,28.90
2019-05-09T02:18:44.025Z,25.80
2019-05-09T02:21:14.416Z,25.63
2019-05-09T02:23:43.211Z,26.57
2019-05-09T02:26:13.592Z,26.60
2019-05-09T02:28:43.245Z,28.00
2019-05-09T02:31:15.765Z,27.93
2019-05-09T02:33:45.142Z,27.57
2019-05-09T02:36:11.708Z,34.57
2019-05-09T02:38:39.921Z,36.07
2019-05-09T02:41:08.968Z,27.63
2019-05-09T02:43:38.889Z,28.10
2019-05-09T02:46:11.891Z,27.93
2019-05-09T02:48:40.390Z,26.60
2019-05-09T02:51:09.407Z,26.07
2019-05-09T02:53:39.570Z,24.30
2019-05-09T02:56:09.167Z,24.20
2019-05-09T02:58:58.701Z,22.10
2019-05-09T03:01:29.356Z,21.17
2019-05-09T03:03:59.031Z,21.03
2019-05-09T03:06:28.365Z,21.40
2019-05-09T03:08:59.347Z,20.40
2019-05-09T03:11:28.959Z,20.60
2019-05-09T03:13:58.603Z,22.03
2019-05-09T03:16:29.335Z,28.30
2019-05-09T03:18:58.456Z,24.03
2019-05-09T03:21:45.294Z,34.20
2019-05-09T03:24:13.558Z,30.30
2019-05-09T03:26:43.612Z,30.15
2019-05-09T03:29:22.633Z,20.27
2019-05-09T03:31:51.500Z,23.23
2019-05-09T03:34:20.103Z,22.90
2019-05-09T03:36:48.480Z,22.17
2019-05-09T03:39:18.524Z,21.23
2019-05-09T03:41:48.709Z,21.33
2019-05-09T03:44:17.995Z,24.83
2019-05-09T03:46:58.127Z,20.93
2019-05-09T03:49:28.405Z,19.40
2019-05-09T03:51:58.497Z,17.93
2019-05-09T03:54:28.332Z,20.70
2019-05-09T03:57:01.172Z,19.03
2019-05-09T03:59:29.579Z,19.47
2019-05-09T04:01:59.069Z,19.10
2019-05-09T04:04:28.785Z,19.40
2019-05-09T04:06:58.046Z,18.30
2019-05-09T04:09:27.376Z,18.23
2019-05-09T04:11:58.413Z,18.70
2019-05-09T04:14:30.471Z,20.83
2019-05-09T04:16:59.007Z,22.63
2019-05-09T04:19:27.683Z,23.20
2019-05-09T04:21:57.546Z,25.67
2019-05-09T04:24:28.002Z,26.30
2019-05-09T04:27:04.075Z,26.23
2019-05-09T04:29:32.409Z,28.77
2019-05-09T04:32:00.676Z,28.30
2019-05-09T04:34:29.237Z,29.93
2019-05-09T04:36:57.756Z,34.83
2019-05-09T04:39:28.234Z,34.77
2019-05-09T04:42:03.733Z,36.93
2019-05-09T04:44:31.604Z,33.40
2019-05-09T04:47:03.415Z,37.27
2019-05-09T04:49:35.143Z,35.90
2019-05-09T04:52:00.146Z,37.77
2019-05-09T04:54:28.610Z,34.20
2019-05-09T04:56:57.526Z,31.27
2019-05-09T04:59:28.126Z,33.57
2019-05-09T05:02:09.648Z,33.97
2019-05-09T05:04:39.103Z,35.43
2019-05-09T05:07:07.704Z,33.60
2019-05-09T05:09:37.931Z,36.93
2019-05-09T05:12:08.467Z,37.57
2019-05-09T05:14:38.520Z,39.47
2019-05-09T05:17:11.185Z,38.53
2019-05-09T05:19:38.273Z,40.10
2019-05-09T05:22:20.378Z,41.60
2019-05-09T05:24:50.634Z,45.97
2019-05-09T05:27:19.138Z,49.27
2019-05-09T05:29:47.695Z,48.73
2019-05-09T05:32:18.007Z,48.77
2019-05-09T05:34:50.496Z,50.93
2019-05-09T05:37:18.712Z,66.70
2019-05-09T05:39:47.753Z,61.57
2019-05-09T05:42:17.625Z,54.70
2019-05-09T05:44:47.594Z,51.27
2019-05-09T05:47:18.106Z,55.43
2019-05-09T05:49:48.817Z,44.83
2019-05-09T05:52:18.544Z,45.07
2019-05-09T05:54:47.704Z,39.83
2019-05-09T05:57:19.526Z,40.07
2019-05-09T05:59:48.293Z,40.07
2019-05-09T06:02:17.793Z,41.10
2019-05-09T06:04:48.560Z,41.23
2019-05-09T06:07:18.493Z,43.20
2019-05-09T06:09:48.155Z,34.90
2019-05-09T06:12:18.511Z,38.63
2019-05-09T06:14:48.104Z,38.03
2019-05-09T06:17:18.066Z,38.10
2019-05-09T06:19:48.181Z,41.50
2019-05-09T06:22:18.333Z,45.30
2019-05-09T06:24:47.880Z,40.30
2019-05-09T06:27:18.273Z,37.40
2019-05-09T06:29:47.730Z,35.63
2019-05-09T06:32:18.628Z,32.43
2019-05-09T06:34:47.729Z,31.50
2019-05-09T06:37:18.328Z,30.07
2019-05-09T06:39:48.640Z,37.60
2019-05-09T06:42:18.091Z,30.97
2019-05-09T06:45:00.700Z,32.97
2019-05-09T06:47:30.904Z,33.33
2019-05-09T06:50:00.756Z,30.63
2019-05-09T06:52:29.019Z,30.17
2019-05-09T06:54:58.215Z,27.97
2019-05-09T06:57:28.078Z,29.33
2019-05-09T06:59:57.914Z,28.70
2019-05-09T07:02:28.507Z,30.73
2019-05-09T07:04:58.933Z,32.47
2019-05-09T07:07:34.954Z,31.80
2019-05-09T07:10:07.594Z,30.73
2019-05-09T07:12:37.937Z,30.80
2019-05-09T07:15:08.564Z,31.90
2019-05-09T07:17:38.553Z,32.40
2019-05-09T07:20:10.053Z,30.33
2019-05-09T07:22:39.990Z,30.13
2019-05-09T07:25:18.432Z,31.37
2019-05-09T07:27:48.294Z,33.27
2019-05-09T07:30:22.709Z,34.93
2019-05-09T07:33:09.635Z,33.93
2019-05-09T07:35:38.334Z,34.80
2019-05-09T07:38:08.572Z,35.17
2019-05-09T07:40:38.524Z,36.80
2019-05-09T07:43:07.702Z,32.37
2019-05-09T07:45:38.433Z,33.43
2019-05-09T07:48:11.707Z,31.53
2019-05-09T07:50:40.024Z,33.67
2019-05-09T07:53:08.961Z,32.47
2019-05-09T07:55:38.067Z,28.47
2019-05-09T07:58:08.078Z,29.70
2019-05-09T08:00:38.489Z,26.47
2019-05-09T08:03:12.941Z,28.30
2019-05-09T08:05:39.844Z,31.67
2019-05-09T08:08:10.820Z,32.33
2019-05-09T08:10:39.067Z,33.90
2019-05-09T08:13:11.849Z,25.37
2019-05-09T08:15:42.462Z,23.20
2019-05-09T08:18:11.009Z,27.10
2019-05-09T08:20:40.753Z,28.47
2019-05-09T08:23:09.057Z,30.33
2019-05-09T08:25:38.270Z,31.17
2019-05-09T08:28:09.058Z,33.13
2019-05-09T08:30:40.078Z,29.37
2019-05-09T08:33:08.417Z,25.43
2019-05-09T08:35:38.292Z,24.10
2019-05-09T08:38:08.648Z,21.37
2019-05-09T08:40:38.219Z,22.30
2019-05-09T08:43:07.572Z,24.97
2019-05-09T08:45:38.061Z,31.00
2019-05-09T08:48:09.611Z,31.43
2019-05-09T08:50:49.589Z,33.70
2019-05-09T08:53:18.793Z,35.60
2019-05-09T08:55:47.943Z,42.57
2019-05-09T08:58:19.606Z,38.43
2019-05-09T09:00:48.432Z,27.70
2019-05-09T09:03:18.510Z,28.87
2019-05-09T09:05:48.595Z,37.33
2019-05-09T09:08:18.353Z,34.57
2019-05-09T09:10:48.850Z,34.37
2019-05-09T09:13:17.588Z,30.97
2019-05-09T09:16:05.141Z,33.23
2019-05-09T09:18:18.007Z,33.50
2019-05-09T09:20:48.573Z,35.63
2019-05-09T09:23:18.038Z,34.00
2019-05-09T09:25:48.773Z,32.30
2019-05-09T09:28:18.273Z,31.70
2019-05-09T09:30:48.453Z,31.13
2019-05-09T09:33:17.632Z,30.80
2019-05-09T09:35:48.699Z,28.03
2019-05-09T09:38:17.681Z,26.90
2019-05-09T09:40:47.881Z,27.07
2019-05-09T09:43:17.641Z,27.93
2019-05-09T09:45:48.091Z,30.87
2019-05-09T09:48:18.080Z,37.40
2019-05-09T09:50:51.289Z,34.40
2019-05-09T09:53:19.631Z,24.47
2019-05-09T09:55:47.817Z,21.13
2019-05-09T09:58:19.017Z,21.60
2019-05-09T10:01:05.193Z,24.53
2019-05-09T10:03:34.475Z,26.20
2019-05-09T10:06:03.644Z,36.07
2019-05-09T10:08:39.537Z,25.73
2019-05-09T10:11:08.152Z,18.77
2019-05-09T10:13:40.603Z,21.20
2019-05-09T10:16:28.512Z,20.20
2019-05-09T10:18:46.355Z,20.00
2019-05-09T10:21:19.337Z,20.13
2019-05-09T10:23:48.555Z,20.13
2019-05-09T10:26:17.818Z,21.97
2019-05-09T10:28:48.858Z,23.17
2019-05-09T10:31:17.127Z,19.37
2019-05-09T10:33:45.557Z,15.73
2019-05-09T10:36:15.491Z,19.67
2019-05-09T10:38:44.077Z,19.17
2019-05-09T10:41:12.447Z,20.73
2019-05-09T10:43:48.739Z,17.83
2019-05-09T10:46:21.833Z,16.10
2019-05-09T10:48:52.532Z,16.40
2019-05-09T10:51:20.748Z,17.53
2019-05-09T10:53:48.988Z,18.83
2019-05-09T10:56:18.696Z,16.20
2019-05-09T10:58:48.224Z,15.13
2019-05-09T11:01:18.521Z,16.50
2019-05-09T11:03:48.344Z,14.00
2019-05-09T11:06:18.385Z,12.23
2019-05-09T11:08:48.031Z,12.17
2019-05-09T11:11:18.365Z,11.43
2019-05-09T11:13:48.411Z,11.47
2019-05-09T11:16:18.326Z,12.73
2019-05-09T11:18:48.400Z,14.67
2019-05-09T11:21:19.145Z,13.07
2019-05-09T11:23:48.853Z,12.83
2019-05-09T11:26:18.262Z,13.87
2019-05-09T11:28:47.293Z,14.23
2019-05-09T11:31:17.998Z,14.60
2019-05-09T11:33:48.293Z,14.13
2019-05-09T11:36:20.640Z,13.83
2019-05-09T11:38:49.109Z,11.80
2019-05-09T11:41:18.982Z,18.40
2019-05-09T11:43:48.285Z,12.47
2019-05-09T11:46:18.031Z,11.90
2019-05-09T11:48:46.096Z,11.90
2019-05-09T11:51:14.771Z,11.07
2019-05-09T11:53:42.982Z,12.23
2019-05-09T11:56:11.426Z,11.03
2019-05-09T11:58:40.317Z,11.63
2019-05-09T12:01:08.911Z,20.20
2019-05-09T12:03:38.831Z,22.00
2019-05-09T12:06:08.126Z,16.13
2019-05-09T12:08:38.530Z,14.87
2019-05-09T12:11:08.404Z,15.90
2019-05-09T12:13:37.984Z,12.77
2019-05-09T12:16:06.838Z,14.97
2019-05-09T12:18:35.156Z,12.07
2019-05-09T12:21:04.329Z,10.40
2019-05-09T12:23:32.853Z,11.27
2019-05-09T12:26:01.388Z,10.20
2019-05-09T12:28:29.943Z,14.50
2019-05-09T12:30:58.935Z,18.97
2019-05-09T12:33:28.800Z,13.23
2019-05-09T12:35:59.216Z,50.10
2019-05-09T12:38:28.848Z,23.43
2019-05-09T12:41:00.557Z,24.90
2019-05-09T12:43:28.273Z,17.60
2019-05-09T12:45:57.832Z,12.60
2019-05-09T12:48:27.842Z,9.53
2019-05-09T12:50:58.653Z,13.83
2019-05-09T12:53:27.955Z,14.43
2019-05-09T12:56:02.575Z,12.80
2019-05-09T12:58:30.785Z,11.87
2019-05-09T13:00:59.181Z,12.13
2019-05-09T13:03:28.044Z,14.10
2019-05-09T13:05:57.528Z,16.60
2019-05-09T13:08:27.835Z,17.77
2019-05-09T13:10:58.147Z,11.93
2019-05-09T13:13:28.301Z,21.73
2019-05-09T13:16:14.793Z,16.20
2019-05-09T13:19:00.310Z,12.87
2019-05-09T13:21:32.233Z,12.10
2019-05-09T13:23:58.788Z,18.60
2019-05-09T13:26:28.778Z,23.17
2019-05-09T13:28:58.809Z,19.00
2019-05-09T13:31:29.381Z,35.90
2019-05-09T13:33:58.846Z,31.40
2019-05-09T13:36:28.387Z,29.60
2019-05-09T13:39:04.146Z,18.83
2019-05-09T13:41:27.175Z,13.60
2019-05-09T13:43:59.265Z,10.53
2019-05-09T13:46:28.274Z,11.47
2019-05-09T13:49:10.007Z,18.00
2019-05-09T13:51:26.452Z,27.53
2019-05-09T13:53:54.821Z,21.97
2019-05-09T13:56:23.296Z,28.87
2019-05-09T13:58:52.264Z,35.97
2019-05-09T14:01:20.896Z,38.83
2019-05-09T14:03:49.315Z,29.53
2019-05-09T14:06:17.755Z,30.90
2019-05-09T14:08:48.958Z,31.93
2019-05-09T14:11:19.103Z,30.27
2019-05-09T14:13:48.463Z,35.37
2019-05-09T14:16:21.823Z,35.70
2019-05-09T14:18:48.370Z,28.20
2019-05-09T14:21:18.783Z,29.60
2019-05-09T14:24:00.212Z,26.53
2019-05-09T14:26:18.096Z,27.83
2019-05-09T14:28:48.838Z,21.53
2019-05-09T14:31:18.650Z,25.57
2019-05-09T14:33:47.763Z,17.93
2019-05-09T14:36:16.847Z,12.30
2019-05-09T14:38:48.168Z,9.63
2019-05-09T14:41:15.148Z,23.57
2019-05-09T14:43:43.904Z,7.50
2019-05-09T14:46:12.729Z,6.67
2019-05-09T14:48:41.291Z,13.77
2019-05-09T14:51:11.653Z,20.23
2019-05-09T14:53:40.079Z,23.03
2019-05-09T14:56:08.870Z,20.83
2019-05-09T14:58:38.824Z,24.63
2019-05-09T15:01:09.290Z,29.50
2019-05-09T15:03:38.888Z,22.30
2019-05-09T15:06:07.657Z,23.33
2019-05-09T15:08:38.191Z,24.90
2019-05-09T15:11:09.852Z,26.50
2019-05-09T15:13:37.735Z,30.70
2019-05-09T15:16:05.997Z,32.33
2019-05-09T15:18:34.391Z,34.87
2019-05-09T15:21:03.071Z,35.43
2019-05-09T15:23:31.289Z,37.23
2019-05-09T15:26:07.706Z,29.03
2019-05-09T15:28:38.538Z,21.23
2019-05-09T15:31:08.828Z,22.73
2019-05-09T15:33:37.573Z,12.53
2019-05-09T15:36:09.124Z,16.37
2019-05-09T15:38:38.061Z,23.73
2019-05-09T15:41:12.082Z,31.83
2019-05-09T15:43:38.109Z,28.07
2019-05-09T15:46:18.649Z,31.03
2019-05-09T15:48:47.944Z,34.03
2019-05-09T15:51:18.042Z,29.00
2019-05-09T15:53:48.651Z,30.07
2019-05-09T15:56:18.727Z,31.93
2019-05-09T15:58:49.046Z,52.27
2019-05-09T16:01:18.579Z,44.93
2019-05-09T16:03:48.599Z,39.30
2019-05-09T16:06:19.075Z,36.93
2019-05-09T16:08:47.401Z,43.03
2019-05-09T16:11:17.934Z,48.43
2019-05-09T16:13:47.975Z,33.37
2019-05-09T16:16:17.628Z,37.67
2019-05-09T16:18:48.560Z,25.43
2019-05-09T16:21:17.510Z,13.90
2019-05-09T16:23:48.536Z,14.27
2019-05-09T16:26:18.094Z,42.93
2019-05-09T16:28:48.811Z,17.83
2019-05-09T16:31:17.185Z,16.20
2019-05-09T16:33:47.583Z,17.67
2019-05-09T16:36:17.393Z,19.07
2019-05-09T16:38:48.442Z,17.67
2019-05-09T16:41:15.393Z,9.90
2019-05-09T16:43:43.628Z,12.17
2019-05-09T16:46:12.070Z,14.73
2019-05-09T16:48:41.100Z,17.53
2019-05-09T16:51:10.578Z,23.40
2019-05-09T16:53:39.343Z,28.63
2019-05-09T16:56:08.216Z,16.80
2019-05-09T16:58:40.087Z,22.97
2019-05-09T17:01:08.541Z,22.63
2019-05-09T17:03:36.800Z,30.87
2019-05-09T17:06:07.484Z,33.67
2019-05-09T17:08:35.737Z,42.93
2019-05-09T17:11:08.651Z,30.83
2019-05-09T17:13:38.333Z,27.07
2019-05-09T17:16:07.524Z,51.57
2019-05-09T17:18:38.184Z,56.93
2019-05-09T17:21:15.959Z,50.43
2019-05-09T17:23:38.468Z,55.23
2019-05-09T17:26:08.317Z,57.03
2019-05-09T17:28:37.604Z,53.33
2019-05-09T17:31:08.667Z,39.10
2019-05-09T17:33:37.899Z,38.63
2019-05-09T17:36:06.624Z,27.77
2019-05-09T17:38:35.441Z,30.77
2019-05-09T17:41:03.913Z,34.67
2019-05-09T17:43:32.139Z,34.90
2019-05-09T17:46:00.514Z,46.47
2019-05-09T17:48:28.936Z,44.23
2019-05-09T17:50:58.026Z,45.73
2019-05-09T17:53:29.250Z,45.70
2019-05-09T17:55:58.584Z,36.17
2019-05-09T17:58:33.140Z,41.73
2019-05-09T18:00:57.777Z,36.53
2019-05-09T18:03:28.808Z,30.73
2019-05-09T18:05:57.720Z,39.80
2019-05-09T18:08:28.158Z,40.90
2019-05-09T18:10:58.318Z,39.33
2019-05-09T18:13:29.753Z,34.83
2019-05-09T18:15:57.491Z,36.33
2019-05-09T18:18:28.164Z,37.27
2019-05-09T18:20:57.840Z,35.87
2019-05-09T18:23:28.183Z,37.13
2019-05-09T18:25:58.321Z,34.77
2019-05-09T18:28:29.110Z,28.80
2019-05-09T18:30:58.681Z,17.10
2019-05-09T18:33:29.671Z,10.73
2019-05-09T18:35:58.226Z,11.00
2019-05-09T18:38:28.413Z,10.63
2019-05-09T18:40:58.094Z,20.27
2019-05-09T18:43:27.424Z,19.93
2019-05-09T18:45:57.705Z,25.83
2019-05-09T18:48:27.863Z,20.27
2019-05-09T18:50:56.430Z,15.87
2019-05-09T18:53:24.687Z,14.97
2019-05-09T18:55:53.752Z,20.60
2019-05-09T18:58:22.220Z,17.80
2019-05-09T19:00:51.107Z,11.43
2019-05-09T19:03:20.035Z,12.80
2019-05-09T19:05:48.499Z,16.47
2019-05-09T19:08:17.515Z,20.83
2019-05-09T19:10:45.856Z,25.37
2019-05-09T19:13:14.095Z,27.10
2019-05-09T19:15:58.991Z,23.47
2019-05-09T19:18:48.307Z,24.40
2019-05-09T19:21:18.204Z,20.20
2019-05-09T19:23:46.546Z,20.50
2019-05-09T19:26:33.673Z,21.73
2019-05-09T19:29:02.173Z,20.57
2019-05-09T19:31:30.526Z,22.00
2019-05-09T19:33:58.819Z,24.87
2019-05-09T19:36:28.137Z,24.30
2019-05-09T19:38:57.698Z,24.63
2019-05-09T19:41:26.570Z,24.03
2019-05-09T19:43:55.064Z,24.40
2019-05-09T19:46:23.536Z,24.97
2019-05-09T19:48:51.862Z,26.67
2019-05-09T19:51:20.930Z,25.20
2019-05-09T19:53:49.330Z,22.80
2019-05-09T19:56:18.188Z,20.80
2019-05-09T19:58:46.788Z,20.13
2019-05-09T20:01:16.062Z,23.90
2019-05-09T20:03:45.173Z,21.97
2019-05-09T20:06:16.533Z,28.53
2019-05-09T20:08:44.176Z,26.73
2019-05-09T20:11:18.162Z,24.80
2019-05-09T20:13:56.831Z,25.50
2019-05-09T20:16:33.102Z,22.13
2019-05-09T20:19:01.673Z,36.13
2019-05-09T20:21:30.636Z,28.00
2019-05-09T20:23:58.860Z,35.17
2019-05-09T20:26:27.327Z,41.13
2019-05-09T20:28:55.504Z,42.97
2019-05-09T20:31:24.320Z,26.97
2019-05-09T20:33:52.730Z,27.40
2019-05-09T20:36:21.243Z,27.00
2019-05-09T20:38:50.661Z,28.47
2019-05-09T20:41:19.039Z,40.50
2019-05-09T20:43:47.671Z,31.67
2019-05-09T20:46:16.572Z,34.63
2019-05-09T20:48:45.150Z,24.10
2019-05-09T20:51:13.710Z,18.97
2019-05-09T20:53:42.407Z,19.93
2019-05-09T20:56:10.799Z,20.83
2019-05-09T20:58:39.197Z,19.87
2019-05-09T21:01:07.860Z,17.43
2019-05-09T21:03:36.443Z,20.67
2019-05-09T21:06:05.220Z,26.23
2019-05-09T21:08:33.672Z,27.73
2019-05-09T21:11:02.162Z,33.53
2019-05-09T21:13:47.157Z,34.23
2019-05-09T21:16:01.004Z,38.13
2019-05-09T21:18:29.715Z,35.77
2019-05-09T21:20:58.803Z,35.50
2019-05-09T21:23:27.631Z,35.23
2019-05-09T21:25:56.565Z,35.90
2019-05-09T21:28:25.213Z,46.70
2019-05-09T21:30:53.706Z,43.20
2019-05-09T21:33:22.269Z,39.30
2019-05-09T21:35:51.383Z,28.00
2019-05-09T21:38:19.820Z,26.43
2019-05-09T21:40:48.872Z,22.07
2019-05-09T21:43:17.314Z,24.00
2019-05-09T21:45:45.992Z,25.80
2019-05-09T21:48:14.288Z,26.23
2019-05-09T21:50:42.853Z,35.33
2019-05-09T21:53:11.143Z,26.17
2019-05-09T21:55:39.660Z,27.50
2019-05-09T21:58:07.968Z,31.97
2019-05-09T22:00:37.084Z,39.03
2019-05-09T22:03:06.355Z,34.43
2019-05-09T22:05:35.504Z,33.03
2019-05-09T22:08:04.162Z,28.40
2019-05-09T22:10:33.089Z,21.03
2019-05-09T22:13:01.696Z,20.93
2019-05-09T22:15:30.378Z,23.17
2019-05-09T22:17:59.924Z,20.07
2019-05-09T22:20:28.135Z,20.70
2019-05-09T22:22:56.592Z,22.00
2019-05-09T22:25:26.032Z,27.73
2019-05-09T22:27:54.893Z,30.80
2019-05-09T22:30:23.460Z,31.23
2019-05-09T22:32:51.840Z,29.43
2019-05-09T22:35:20.048Z,26.87
2019-05-09T22:37:48.468Z,28.30
2019-05-09T22:40:16.976Z,29.33
2019-05-09T22:42:46.272Z,24.57
2019-05-09T22:45:14.703Z,22.70
2019-05-09T22:47:43.015Z,17.47
2019-05-09T22:50:11.461Z,18.13
2019-05-09T22:52:39.964Z,22.83
2019-05-09T22:55:08.472Z,23.47
2019-05-09T22:57:36.684Z,22.07
2019-05-09T23:00:05.089Z,21.17
2019-05-09T23:02:33.790Z,19.97
2019-05-09T23:05:02.784Z,24.10
2019-05-09T23:07:31.036Z,26.00
2019-05-09T23:09:59.337Z,30.03
2019-05-09T23:12:27.824Z,30.30
2019-05-09T23:14:56.451Z,27.93
2019-05-09T23:17:24.661Z,29.23
2019-05-09T23:19:53.064Z,28.87
2019-05-09T23:22:22.685Z,28.90
2019-05-09T23:24:51.257Z,27.97
2019-05-09T23:27:20.246Z,30.27
2019-05-09T23:29:48.541Z,26.90
2019-05-09T23:32:18.858Z,28.13
2019-05-09T23:34:47.712Z,24.20
2019-05-09T23:37:16.024Z,26.07
2019-05-09T23:39:46.314Z,25.93
2019-05-09T23:42:14.540Z,28.00
2019-05-09T23:44:43.647Z,26.97
2019-05-09T23:47:11.860Z,26.47
2019-05-09T23:49:40.379Z,23.87
2019-05-09T23:52:08.617Z,22.60
2019-05-09T23:54:54.962Z,21.23
2019-05-09T23:57:41.311Z,20.53
